Time;durP1;ratioP1;P1;durP2;ratioP2;P2;SDS_P1;SDS_P2;PMS_P1;PMS_P2;Temp;Humidity;BMP_temperature;BMP_pressure;BME280_temperature;BME280_humidity;BME280_pressure;Samples;Min_cycle;Max_cycle;Signal;HPM_P1;HPM_P2
2022/11/16 00:03:06;;;;;;;;;1.67;1.67;;;;;;;;5077034;28;45938;-80
2022/11/16 00:05:32;;;;;;;;;2.33;1.33;;;;;;;;5077592;28;45715;-83
2022/11/16 00:07:57;;;;;;;;;4.67;3.00;;;;;;;;5076598;28;45535;-80
2022/11/16 00:10:23;;;;;;;;;1.00;1.00;;;;;;;;5063029;27;46942;-79
2022/11/16 00:12:48;;;;;;;;;1.00;1.00;;;;;;;;5056537;28;45363;-81
2022/11/16 00:15:13;;;;;;;;;1.00;1.00;;;;;;;;5056322;28;45815;-79
2022/11/16 00:17:39;;;;;;;;;1.33;1.33;;;;;;;;5057338;28;45788;-81
2022/11/16 00:20:05;;;;;;;;;1.00;1.00;;;;;;;;5078249;27;45386;-82
2022/11/16 00:22:30;;;;;;;;;2.00;2.00;;;;;;;;5080447;28;45692;-82
2022/11/16 00:24:56;;;;;;;;;2.33;1.00;;;;;;;;5061653;28;45366;-81
2022/11/16 00:27:21;;;;;;;;;2.00;1.00;;;;;;;;5080594;28;45817;-83
2022/11/16 00:29:47;;;;;;;;;1.33;1.33;;;;;;;;5072542;28;45738;-82
2022/11/16 00:32:13;;;;;;;;;1.00;1.00;;;;;;;;5060497;28;45582;-83
2022/11/16 00:35:08;;;;;;;;;;;;;;;;;;;;;
2022/11/16 00:37:46;;;;;;;;;1.00;1.00;;;;;;;;5013671;28;73233;-83
2022/11/16 00:40:11;;;;;;;;;2.33;2.00;;;;;;;;5050987;28;45446;-80
2022/11/16 00:42:36;;;;;;;;;1.00;1.00;;;;;;;;5074587;28;45552;-80
2022/11/16 00:45:02;;;;;;;;;1.00;1.00;;;;;;;;5046599;28;45461;-81
2022/11/16 00:47:28;;;;;;;;;2.00;1.00;;;;;;;;5059073;28;45434;-82
2022/11/16 00:49:53;;;;;;;;;3.00;3.00;;;;;;;;5068346;28;45922;-82
2022/11/16 00:52:24;;;;;;;;;2.67;1.00;;;;;;;;5057858;28;45814;-81
2022/11/16 00:54:50;;;;;;;;;3.00;0.00;;;;;;;;5060974;28;45823;-81
2022/11/16 00:57:15;;;;;;;;;3.00;2.00;;;;;;;;5080093;27;45328;-79
2022/11/16 00:59:40;;;;;;;;;5.00;2.67;;;;;;;;5079087;28;45736;-79
2022/11/16 01:02:06;;;;;;;;;3.67;1.00;;;;;;;;5063668;28;44832;-81
2022/11/16 01:04:37;;;;;;;;;3.00;1.00;;;;;;;;5052782;28;45777;-81
2022/11/16 01:07:02;;;;;;;;;4.00;2.00;;;;;;;;5070699;28;45708;-82
2022/11/16 01:09:28;;;;;;;;;2.00;2.00;;;;;;;;5055166;28;47239;-81
2022/11/16 01:12:08;;;;;;;;;4.00;2.00;;;;;;;;5054952;28;45739;-81
2022/11/16 01:14:37;;;;;;;;;3.33;1.33;;;;;;;;5060925;28;45462;-79
2022/11/16 01:17:03;;;;;;;;;5.33;4.33;;;;;;;;5071467;28;45419;-80
2022/11/16 01:19:29;;;;;;;;;1.00;1.00;;;;;;;;5072486;28;46152;-81
2022/11/16 01:21:54;;;;;;;;;2.67;1.00;;;;;;;;5068023;28;45703;-79
2022/11/16 01:24:19;;;;;;;;;3.00;2.00;;;;;;;;5060082;28;45413;-79
2022/11/16 01:26:45;;;;;;;;;4.67;4.00;;;;;;;;5066174;28;45481;-79
2022/11/16 01:29:10;;;;;;;;;2.00;2.00;;;;;;;;5041509;28;46344;-77
2022/11/16 01:31:35;;;;;;;;;4.67;3.00;;;;;;;;5072563;28;45911;-78
2022/11/16 01:34:01;;;;;;;;;5.00;2.00;;;;;;;;5057160;28;45692;-80
2022/11/16 01:36:26;;;;;;;;;4.00;1.33;;;;;;;;5072166;27;45108;-80
2022/11/16 01:38:51;;;;;;;;;3.00;2.00;;;;;;;;5072629;28;45884;-80
2022/11/16 01:41:22;;;;;;;;;4.00;2.67;;;;;;;;5043508;28;45990;-81
2022/11/16 01:43:54;;;;;;;;;4.33;2.00;;;;;;;;5061475;28;45687;-81
2022/11/16 01:46:19;;;;;;;;;3.00;1.00;;;;;;;;5061144;28;45492;-81
2022/11/16 01:48:45;;;;;;;;;3.33;2.00;;;;;;;;5057954;28;45569;-81
2022/11/16 01:51:11;;;;;;;;;2.67;1.00;;;;;;;;5056694;27;45449;-78
2022/11/16 01:53:36;;;;;;;;;1.00;1.00;;;;;;;;5079768;27;45683;-82
2022/11/16 01:56:02;;;;;;;;;4.33;2.33;;;;;;;;5060266;28;45447;-79
2022/11/16 01:58:27;;;;;;;;;3.00;1.00;;;;;;;;5060837;28;47668;-79
2022/11/16 02:00:53;;;;;;;;;1.33;0.00;;;;;;;;5075658;28;45453;-80
2022/11/16 02:03:26;;;;;;;;;0.00;0.00;;;;;;;;5062496;28;45431;-81
2022/11/16 02:05:51;;;;;;;;;4.00;2.67;;;;;;;;5089200;27;45363;-81
2022/11/16 02:11:17;;;;;;;;;0.00;0.00;;;;;;;;5079590;27;45355;-79
2022/11/16 02:14:00;;;;;;;;;0.67;0.67;;;;;;;;5082929;28;45746;-82
2022/11/16 02:16:38;;;;;;;;;2.00;1.00;;;;;;;;5070727;28;45781;-82
2022/11/16 02:19:22;;;;;;;;;2.67;1.33;;;;;;;;5065625;28;46391;-81
2022/11/16 02:22:03;;;;;;;;;3.33;2.00;;;;;;;;5078318;27;45807;-81
2022/11/16 02:24:28;;;;;;;;;2.00;1.00;;;;;;;;5076820;27;45784;-81
2022/11/16 02:26:56;;;;;;;;;3.33;0.33;;;;;;;;5074054;27;45635;-80
2022/11/16 02:29:31;;;;;;;;;0.67;0.67;;;;;;;;5066845;28;46176;-81
2022/11/16 02:31:56;;;;;;;;;3.67;3.00;;;;;;;;5061804;28;45754;-80
2022/11/16 02:34:22;;;;;;;;;3.00;0.00;;;;;;;;5068058;28;45354;-78
2022/11/16 02:36:48;;;;;;;;;1.00;0.67;;;;;;;;5052474;28;45863;-79
2022/11/16 02:39:16;;;;;;;;;3.33;2.00;;;;;;;;5063105;27;45575;-79
2022/11/16 02:41:44;;;;;;;;;3.67;1.00;;;;;;;;5053203;28;45820;-78
2022/11/16 02:44:20;;;;;;;;;1.00;1.00;;;;;;;;5061445;28;45762;-79
2022/11/16 02:46:48;;;;;;;;;1.00;1.00;;;;;;;;5043533;28;48412;-78
2022/11/16 02:49:16;;;;;;;;;5.00;2.67;;;;;;;;5067335;28;46241;-80
2022/11/16 02:51:43;;;;;;;;;0.00;0.00;;;;;;;;5076935;28;45687;-78
2022/11/16 02:54:11;;;;;;;;;3.00;2.00;;;;;;;;5077972;27;45488;-81
2022/11/16 02:56:49;;;;;;;;;5.00;1.00;;;;;;;;5075419;28;45547;-80
2022/11/16 02:59:14;;;;;;;;;4.00;1.00;;;;;;;;5062149;28;47297;-82
2022/11/16 03:01:42;;;;;;;;;1.33;1.33;;;;;;;;5049990;28;45490;-79
2022/11/16 03:04:16;;;;;;;;;2.00;1.00;;;;;;;;5071331;28;45664;-79
2022/11/16 03:06:42;;;;;;;;;0.00;0.00;;;;;;;;5057220;28;45402;-80
2022/11/16 03:09:11;;;;;;;;;2.00;1.00;;;;;;;;5055937;28;45894;-79
2022/11/16 03:11:59;;;;;;;;;1.00;0.00;;;;;;;;5074305;28;45414;-79
2022/11/16 03:14:27;;;;;;;;;3.00;1.00;;;;;;;;5069382;28;45504;-77
2022/11/16 03:16:55;;;;;;;;;2.67;2.00;;;;;;;;5077158;28;45946;-78
2022/11/16 03:19:46;;;;;;;;;2.00;1.00;;;;;;;;5052199;28;47251;-80
2022/11/16 03:22:25;;;;;;;;;1.00;0.00;;;;;;;;5084093;27;45386;-79
2022/11/16 03:24:50;;;;;;;;;0.33;0.33;;;;;;;;5051058;28;45452;-79
2022/11/16 03:27:22;;;;;;;;;2.00;0.00;;;;;;;;5077894;28;45431;-79
2022/11/16 03:30:03;;;;;;;;;2.67;1.00;;;;;;;;5046978;28;47351;-79
2022/11/16 03:32:34;;;;;;;;;1.00;1.00;;;;;;;;5069807;28;45752;-80
2022/11/16 03:35:03;;;;;;;;;2.67;1.00;;;;;;;;5049583;28;45438;-80
2022/11/16 03:37:29;;;;;;;;;3.67;1.00;;;;;;;;5071006;27;45698;-80
2022/11/16 03:39:55;;;;;;;;;2.00;1.00;;;;;;;;5052220;28;48741;-79
2022/11/16 03:42:22;;;;;;;;;0.00;0.00;;;;;;;;5073255;28;45932;-80
2022/11/16 03:44:48;;;;;;;;;0.00;0.00;;;;;;;;5056317;28;45778;-80
2022/11/16 03:47:14;;;;;;;;;1.00;1.00;;;;;;;;5056582;28;45723;-80
2022/11/16 03:49:42;;;;;;;;;1.00;1.00;;;;;;;;5058172;28;46055;-81
2022/11/16 03:52:08;;;;;;;;;2.00;1.00;;;;;;;;5067900;28;45742;-81
2022/11/16 03:54:33;;;;;;;;;0.00;0.00;;;;;;;;5094565;27;44747;-78
2022/11/16 03:56:58;;;;;;;;;1.67;1.67;;;;;;;;5066942;27;46111;-79
2022/11/16 03:59:23;;;;;;;;;3.00;0.00;;;;;;;;5052938;28;47647;-80
2022/11/16 04:01:49;;;;;;;;;1.33;1.33;;;;;;;;5065633;28;45413;-81
2022/11/16 04:24:11;;;;;;;;;2.67;0.00;;;;;;;;5061181;28;45368;-81
2022/11/16 04:26:08;;;;;;;;;2.33;0.33;;;;;;;;5074471;28;45738;-80
2022/11/16 04:28:34;;;;;;;;;1.67;0.00;;;;;;;;5064439;28;45407;-79
2022/11/16 04:39:12;;;;;;;;;0.33;0.33;;;;;;;;5072924;28;45940;-81
2022/11/16 04:44:21;;;;;;;;;0.00;0.00;;;;;;;;5068787;28;45508;-79
2022/11/16 04:47:05;;;;;;;;;1.00;1.00;;;;;;;;5077076;27;45821;-80
2022/11/16 04:49:30;;;;;;;;;1.00;1.00;;;;;;;;5061504;28;47102;-78
2022/11/16 04:51:56;;;;;;;;;3.00;1.67;;;;;;;;5058409;28;47230;-80
2022/11/16 04:54:21;;;;;;;;;6.67;0.00;;;;;;;;5064298;28;45746;-78
2022/11/16 04:56:46;;;;;;;;;1.33;1.33;;;;;;;;5063983;28;45833;-78
2022/11/16 04:59:12;;;;;;;;;0.33;0.33;;;;;;;;5039141;28;46612;-79
2022/11/16 05:04:21;;;;;;;;;1.33;0.67;;;;;;;;5060181;28;45836;-80
2022/11/16 05:06:46;;;;;;;;;3.00;0.33;;;;;;;;5070873;28;45783;-80
2022/11/16 05:09:12;;;;;;;;;2.00;0.67;;;;;;;;5049048;28;45962;-81
2022/11/16 05:11:37;;;;;;;;;2.67;0.33;;;;;;;;5071760;27;45762;-81
2022/11/16 05:14:04;;;;;;;;;4.00;1.00;;;;;;;;5063185;28;45623;-81
2022/11/16 05:16:29;;;;;;;;;0.67;0.67;;;;;;;;5078654;27;45386;-80
2022/11/16 05:21:39;;;;;;;;;1.67;0.67;;;;;;;;5076154;28;45306;-81
2022/11/16 05:26:50;;;;;;;;;0.00;0.00;;;;;;;;5067994;28;45636;-80
2022/11/16 05:29:37;;;;;;;;;0.00;0.00;;;;;;;;5069592;27;45773;-81
2022/11/16 05:32:03;;;;;;;;;2.33;0.00;;;;;;;;5044067;28;46876;-80
2022/11/16 05:34:29;;;;;;;;;1.33;1.00;;;;;;;;5064293;28;45481;-79
2022/11/16 05:36:55;;;;;;;;;0.00;0.00;;;;;;;;5091276;27;44872;-80
2022/11/16 05:39:20;;;;;;;;;1.00;1.00;;;;;;;;5108245;27;45638;-79
2022/11/16 05:41:45;;;;;;;;;2.33;0.00;;;;;;;;5074221;28;46936;-83
2022/11/16 05:44:12;;;;;;;;;3.00;2.00;;;;;;;;5066262;28;45387;-82
2022/11/16 05:46:37;;;;;;;;;0.67;0.67;;;;;;;;5066667;28;45667;-78
2022/11/16 05:49:17;;;;;;;;;2.67;1.00;;;;;;;;5075576;28;45710;-85
2022/11/16 05:51:45;;;;;;;;;2.00;1.00;;;;;;;;5089057;28;45700;-84
2022/11/16 05:54:17;;;;;;;;;1.33;0.00;;;;;;;;5087259;28;45283;-82
2022/11/16 05:56:48;;;;;;;;;3.00;2.00;;;;;;;;5097766;27;45423;-81
2022/11/16 05:59:41;;;;;;;;;2.33;1.67;;;;;;;;5080054;28;45643;-83
2022/11/16 06:02:10;;;;;;;;;2.00;1.00;;;;;;;;5074435;28;46150;-80
2022/11/16 06:05:07;;;;;;;;;1.67;1.00;;;;;;;;5055052;28;45632;-81
2022/11/16 06:13:43;;;;;;;;;2.00;2.00;;;;;;;;5064220;28;45730;-81
2022/11/16 06:29:43;;;;;;;;;0.00;0.00;;;;;;;;5026777;28;44901;-80
2022/11/16 06:44:40;;;;;;;;;2.00;1.00;;;;;;;;5024622;28;45526;-83
2022/11/16 06:47:09;;;;;;;;;3.00;2.00;;;;;;;;5007464;28;46444;-81
2022/11/16 06:55:21;;;;;;;;;2.00;2.00;;;;;;;;4913532;23;45935;-65
2022/11/16 06:57:46;;;;;;;;;2.00;2.00;;;;;;;;4911752;28;46631;-65
2022/11/16 07:00:12;;;;;;;;;5.00;2.67;;;;;;;;4915603;28;45797;-65
2022/11/16 07:02:37;;;;;;;;;4.00;2.00;;;;;;;;4895522;28;45673;-66
2022/11/16 07:05:06;;;;;;;;;3.00;1.33;;;;;;;;4912886;28;46032;-64
2022/11/16 07:07:32;;;;;;;;;1.00;1.00;;;;;;;;4915172;28;46082;-65
2022/11/16 07:09:57;;;;;;;;;2.00;2.00;;;;;;;;4912516;28;45416;-64
2022/11/16 07:12:22;;;;;;;;;2.33;1.00;;;;;;;;4914985;28;45568;-67
2022/11/16 07:14:48;;;;;;;;;1.33;1.00;;;;;;;;4896854;28;45617;-67
2022/11/16 07:17:13;;;;;;;;;3.67;1.00;;;;;;;;4900622;28;45588;-65
2022/11/16 07:19:39;;;;;;;;;2.00;1.00;;;;;;;;4913932;28;46397;-63
2022/11/16 07:22:05;;;;;;;;;1.67;1.67;;;;;;;;4913880;28;45704;-65
2022/11/16 07:24:33;;;;;;;;;1.33;1.33;;;;;;;;4915660;28;45864;-67
2022/11/16 07:26:59;;;;;;;;;2.33;2.33;;;;;;;;4915090;28;45399;-70
2022/11/16 07:29:27;;;;;;;;;2.67;2.00;;;;;;;;4915203;28;45529;-69
2022/11/16 07:31:58;;;;;;;;;3.67;2.00;;;;;;;;4916546;28;45736;-69
2022/11/16 07:34:27;;;;;;;;;3.00;1.33;;;;;;;;4917284;28;45584;-69
2022/11/16 07:36:52;;;;;;;;;5.67;1.33;;;;;;;;4901803;28;47023;-69
2022/11/16 07:39:18;;;;;;;;;3.00;2.00;;;;;;;;4918669;28;46511;-67
2022/11/16 07:41:44;;;;;;;;;6.00;4.00;;;;;;;;4915347;28;45357;-68
2022/11/16 07:44:09;;;;;;;;;4.33;1.33;;;;;;;;4916532;28;45631;-68
2022/11/16 07:46:34;;;;;;;;;2.67;1.67;;;;;;;;4912789;28;45711;-69
2022/11/16 07:49:00;;;;;;;;;3.00;3.00;;;;;;;;4913078;28;46995;-73
2022/11/16 07:51:25;;;;;;;;;5.67;4.00;;;;;;;;4923523;28;45835;-69
2022/11/16 07:53:57;;;;;;;;;3.33;3.33;;;;;;;;4901126;28;46027;-64
2022/11/16 07:56:23;;;;;;;;;2.33;2.33;;;;;;;;4918988;28;45522;-66
2022/11/16 07:58:48;;;;;;;;;5.00;3.00;;;;;;;;4914806;28;45524;-68
2022/11/16 08:01:15;;;;;;;;;4.00;2.00;;;;;;;;4917952;28;45395;-65
2022/11/16 08:03:41;;;;;;;;;3.67;2.00;;;;;;;;4916699;28;45582;-66
2022/11/16 08:06:09;;;;;;;;;3.00;2.33;;;;;;;;4915324;28;45589;-65
2022/11/16 08:08:35;;;;;;;;;6.00;3.00;;;;;;;;4915381;28;46209;-65
2022/11/16 08:11:01;;;;;;;;;3.67;2.67;;;;;;;;4915475;28;45495;-66
2022/11/16 08:13:27;;;;;;;;;4.67;1.67;;;;;;;;4920749;28;45757;-68
2022/11/16 08:15:52;;;;;;;;;7.67;5.00;;;;;;;;4900851;28;46432;-65
2022/11/16 08:18:18;;;;;;;;;2.67;2.67;;;;;;;;4921960;28;45571;-66
2022/11/16 08:20:44;;;;;;;;;4.33;3.67;;;;;;;;4918508;28;45294;-66
2022/11/16 08:23:09;;;;;;;;;6.00;3.67;;;;;;;;4915411;28;45686;-65
2022/11/16 08:25:35;;;;;;;;;5.00;4.00;;;;;;;;4893810;28;47172;-65
2022/11/16 08:28:00;;;;;;;;;3.33;2.67;;;;;;;;4905382;28;45649;-67
2022/11/16 08:30:25;;;;;;;;;3.00;3.00;;;;;;;;4916620;28;45787;-67
2022/11/16 08:32:50;;;;;;;;;3.00;2.33;;;;;;;;4912509;28;45446;-67
2022/11/16 08:35:16;;;;;;;;;4.67;3.00;;;;;;;;4901482;28;46639;-65
2022/11/16 08:37:41;;;;;;;;;2.00;2.00;;;;;;;;4915189;28;46593;-65
2022/11/16 08:40:06;;;;;;;;;6.00;4.33;;;;;;;;4898509;28;45481;-65
2022/11/16 08:42:32;;;;;;;;;4.67;3.33;;;;;;;;4915177;28;45293;-65
2022/11/16 08:44:57;;;;;;;;;6.00;3.00;;;;;;;;4915209;28;45590;-66
2022/11/16 08:47:22;;;;;;;;;2.33;1.00;;;;;;;;4915417;28;45507;-66
2022/11/16 08:49:48;;;;;;;;;3.00;0.67;;;;;;;;4900998;28;46132;-65
2022/11/16 08:52:14;;;;;;;;;2.00;2.00;;;;;;;;4898367;28;45843;-65
2022/11/16 08:54:40;;;;;;;;;2.67;1.33;;;;;;;;4915314;28;45490;-66
2022/11/16 08:57:05;;;;;;;;;2.00;2.00;;;;;;;;4915727;28;45688;-65
2022/11/16 08:59:30;;;;;;;;;1.00;1.00;;;;;;;;4915458;28;45412;-65
2022/11/16 09:01:56;;;;;;;;;2.33;0.67;;;;;;;;4895983;28;45314;-65
2022/11/16 09:04:22;;;;;;;;;1.67;0.67;;;;;;;;4912998;28;45913;-65
2022/11/16 09:06:47;;;;;;;;;2.67;2.33;;;;;;;;4915896;28;46061;-66
2022/11/16 09:09:12;;;;;;;;;2.33;1.00;;;;;;;;4915041;28;45311;-69
2022/11/16 09:11:38;;;;;;;;;1.33;1.33;;;;;;;;4898301;28;45318;-67
2022/11/16 09:14:03;;;;;;;;;3.00;1.00;;;;;;;;4914767;28;45497;-66
2022/11/16 09:16:28;;;;;;;;;5.33;2.67;;;;;;;;4914907;28;46206;-66
2022/11/16 09:18:54;;;;;;;;;1.67;1.67;;;;;;;;4914968;28;45310;-66
2022/11/16 09:21:24;;;;;;;;;3.00;3.00;;;;;;;;4898519;28;45747;-66
2022/11/16 09:23:50;;;;;;;;;2.00;2.00;;;;;;;;4914576;28;45791;-67
2022/11/16 09:26:15;;;;;;;;;0.33;0.33;;;;;;;;4914978;28;45413;-65
2022/11/16 09:28:41;;;;;;;;;2.33;0.33;;;;;;;;4914672;28;45368;-66
2022/11/16 09:31:06;;;;;;;;;5.33;2.00;;;;;;;;4898143;28;45343;-65
2022/11/16 09:33:32;;;;;;;;;0.67;0.67;;;;;;;;4914143;28;45613;-67
2022/11/16 09:36:05;;;;;;;;;2.00;2.00;;;;;;;;4913404;28;46728;-66
2022/11/16 09:38:31;;;;;;;;;2.33;2.00;;;;;;;;4913837;28;45758;-66
2022/11/16 09:40:56;;;;;;;;;1.33;1.00;;;;;;;;4911538;28;45680;-69
2022/11/16 09:43:54;;;;;;;;;3.00;2.00;;;;;;;;4908391;28;45679;-66
2022/11/16 09:46:32;;;;;;;;;2.75;2.50;;;;;;;;4881132;28;46458;-65
2022/11/16 09:48:59;;;;;;;;;1.00;1.00;;;;;;;;4893416;28;45590;-65
2022/11/16 09:51:28;;;;;;;;;3.75;1.25;;;;;;;;4911479;28;45599;-65
2022/11/16 09:53:59;;;;;;;;;0.00;0.00;;;;;;;;4910430;28;45371;-65
2022/11/16 09:56:26;;;;;;;;;2.00;2.00;;;;;;;;4910659;28;45891;-65
2022/11/16 09:59:06;;;;;;;;;2.50;1.00;;;;;;;;4913209;28;45677;-67
2022/11/16 10:01:43;;;;;;;;;1.33;1.33;;;;;;;;4913151;28;45528;-66
2022/11/16 10:04:27;;;;;;;;;3.00;1.50;;;;;;;;4894762;28;47267;-65
2022/11/16 10:07:01;;;;;;;;;2.33;2.33;;;;;;;;4909177;28;46600;-66
2022/11/16 10:09:28;;;;;;;;;2.50;1.25;;;;;;;;4911835;28;45552;-65
2022/11/16 10:11:57;;;;;;;;;2.25;2.00;;;;;;;;4911542;28;45764;-66
2022/11/16 10:14:23;;;;;;;;;2.25;0.75;;;;;;;;4911578;28;45707;-65
2022/11/16 10:16:54;;;;;;;;;1.00;1.00;;;;;;;;4911166;28;45457;-64
2022/11/16 10:19:19;;;;;;;;;2.50;0.75;;;;;;;;4912099;28;45491;-66
2022/11/16 10:21:48;;;;;;;;;3.00;1.25;;;;;;;;4911232;28;45386;-66
2022/11/16 10:24:28;;;;;;;;;3.00;2.00;;;;;;;;4911775;28;45577;-65
2022/11/16 10:26:54;;;;;;;;;1.00;1.00;;;;;;;;4906985;28;45887;-67
2022/11/16 10:29:38;;;;;;;;;1.00;1.00;;;;;;;;4910882;28;46033;-67
2022/11/16 10:32:24;;;;;;;;;2.00;1.00;;;;;;;;4911297;28;45667;-68
2022/11/16 10:34:54;;;;;;;;;0.00;0.00;;;;;;;;4911478;28;45575;-68
2022/11/16 10:37:20;;;;;;;;;1.00;1.00;;;;;;;;4910774;28;46130;-68
2022/11/16 10:39:46;;;;;;;;;2.00;1.00;;;;;;;;4912357;28;45756;-68
2022/11/16 10:42:22;;;;;;;;;4.25;3.00;;;;;;;;4895784;28;45747;-72
2022/11/16 10:45:11;;;;;;;;;1.00;1.00;;;;;;;;4910567;28;45645;-71
2022/11/16 10:47:49;;;;;;;;;2.00;1.00;;;;;;;;4911866;28;46542;-67
2022/11/16 10:50:17;;;;;;;;;1.00;1.00;;;;;;;;4913060;28;45671;-69
2022/11/16 10:52:42;;;;;;;;;1.00;1.00;;;;;;;;4911184;28;45844;-68
2022/11/16 10:55:12;;;;;;;;;1.50;0.75;;;;;;;;4897215;28;47148;-68
2022/11/16 10:57:55;;;;;;;;;1.50;1.00;;;;;;;;4911330;28;45583;-69
2022/11/16 11:00:32;;;;;;;;;1.50;1.00;;;;;;;;4916781;28;45863;-70
2022/11/16 11:02:57;;;;;;;;;3.50;2.50;;;;;;;;4907279;28;45769;-67
2022/11/16 11:05:24;;;;;;;;;3.25;1.75;;;;;;;;4907787;28;45735;-68
2022/11/16 11:07:50;;;;;;;;;4.00;1.50;;;;;;;;4909629;28;45746;-68
2022/11/16 11:10:35;;;;;;;;;1.00;1.00;;;;;;;;4911750;28;45907;-69
2022/11/16 11:13:00;;;;;;;;;3.50;2.00;;;;;;;;4912712;28;45712;-66
2022/11/16 11:15:26;;;;;;;;;2.25;1.25;;;;;;;;4916789;28;45671;-68
2022/11/16 11:18:10;;;;;;;;;0.75;0.75;;;;;;;;4910005;28;46223;-69
2022/11/16 11:20:35;;;;;;;;;3.25;2.00;;;;;;;;4913209;28;45510;-69
2022/11/16 11:23:11;;;;;;;;;1.00;1.00;;;;;;;;4912320;28;45724;-68
2022/11/16 11:25:38;;;;;;;;;1.00;0.75;;;;;;;;4911807;28;45463;-67
2022/11/16 11:28:15;;;;;;;;;2.75;2.75;;;;;;;;4910736;28;46085;-67
2022/11/16 11:30:50;;;;;;;;;2.50;1.00;;;;;;;;4910382;28;45410;-66
2022/11/16 11:33:16;;;;;;;;;4.75;1.50;;;;;;;;4910540;28;46091;-68
2022/11/16 11:35:42;;;;;;;;;3.50;3.00;;;;;;;;4906156;28;45535;-68
2022/11/16 11:38:13;;;;;;;;;4.33;4.33;;;;;;;;4906928;28;45844;-69
2022/11/16 11:40:40;;;;;;;;;4.50;2.75;;;;;;;;4913418;28;45829;-68
2022/11/16 11:43:20;;;;;;;;;3.00;1.50;;;;;;;;4915172;28;45780;-70
2022/11/16 11:45:52;;;;;;;;;1.25;1.25;;;;;;;;4916010;28;46433;-67
2022/11/16 11:48:32;;;;;;;;;1.00;1.00;;;;;;;;4921109;28;45329;-67
2022/11/16 11:51:01;;;;;;;;;6.50;2.50;;;;;;;;4896574;28;45507;-67
2022/11/16 11:53:41;;;;;;;;;2.50;1.50;;;;;;;;4922411;28;45370;-68
2022/11/16 11:56:09;;;;;;;;;4.67;3.00;;;;;;;;4915877;28;45664;-66
2022/11/16 11:58:37;;;;;;;;;1.75;1.75;;;;;;;;4916607;28;45491;-66
2022/11/16 12:01:14;;;;;;;;;0.75;0.75;;;;;;;;4915864;28;45567;-65
2022/11/16 12:03:52;;;;;;;;;3.00;0.25;;;;;;;;4916536;28;45389;-68
2022/11/16 12:06:20;;;;;;;;;1.50;1.50;;;;;;;;4904019;28;45388;-69
2022/11/16 12:08:55;;;;;;;;;2.00;2.00;;;;;;;;4916081;28;45771;-68
2022/11/16 12:11:36;;;;;;;;;1.50;1.00;;;;;;;;4914996;28;45720;-67
2022/11/16 12:14:10;;;;;;;;;1.00;1.00;;;;;;;;4915883;28;45654;-68
2022/11/16 12:16:52;;;;;;;;;2.50;1.00;;;;;;;;4915601;28;45463;-66
2022/11/16 12:19:40;;;;;;;;;2.75;1.25;;;;;;;;4903749;28;45647;-68
2022/11/16 12:22:16;;;;;;;;;0.00;0.00;;;;;;;;4914405;28;45390;-68
2022/11/16 12:25:02;;;;;;;;;1.00;1.00;;;;;;;;4915805;28;45872;-69
2022/11/16 12:27:27;;;;;;;;;2.25;2.00;;;;;;;;4875838;28;45481;-67
2022/11/16 12:30:01;;;;;;;;;4.00;2.00;;;;;;;;4915109;28;45737;-68
2022/11/16 12:32:42;;;;;;;;;2.00;1.00;;;;;;;;4915180;28;45416;-68
2022/11/16 12:35:10;;;;;;;;;1.50;1.50;;;;;;;;4914900;28;45626;-66
2022/11/16 12:37:41;;;;;;;;;4.75;1.25;;;;;;;;4910929;28;46517;-66
2022/11/16 12:40:13;;;;;;;;;1.25;1.25;;;;;;;;4914696;28;45442;-66
2022/11/16 12:42:39;;;;;;;;;1.50;1.00;;;;;;;;4906980;28;45518;-67
2022/11/16 12:45:23;;;;;;;;;1.50;1.00;;;;;;;;4909082;28;46037;-68
2022/11/16 12:47:58;;;;;;;;;1.75;1.25;;;;;;;;4911053;28;45713;-68
2022/11/16 12:50:35;;;;;;;;;1.75;1.00;;;;;;;;4909725;28;45579;-67
2022/11/16 12:53:06;;;;;;;;;3.00;1.00;;;;;;;;4913697;28;45456;-68
2022/11/16 12:55:31;;;;;;;;;1.00;1.00;;;;;;;;4909472;28;45454;-71
2022/11/16 12:58:15;;;;;;;;;1.00;1.00;;;;;;;;4909199;28;45957;-70
2022/11/16 13:00:56;;;;;;;;;2.00;2.00;;;;;;;;4905736;28;45441;-66
2022/11/16 13:03:32;;;;;;;;;1.25;1.25;;;;;;;;4921307;28;45464;-66
2022/11/16 13:05:57;;;;;;;;;2.00;1.25;;;;;;;;4899343;28;45852;-66
2022/11/16 13:08:44;;;;;;;;;3.50;1.00;;;;;;;;4922120;28;45702;-67
2022/11/16 13:11:14;;;;;;;;;2.50;0.00;;;;;;;;4914587;28;46193;-67
2022/11/16 13:13:41;;;;;;;;;2.75;1.25;;;;;;;;4911824;28;45649;-66
2022/11/16 13:16:07;;;;;;;;;2.25;0.50;;;;;;;;4914155;28;45355;-66
2022/11/16 13:18:34;;;;;;;;;5.25;2.50;;;;;;;;4897763;28;45643;-67
2022/11/16 13:21:04;;;;;;;;;2.50;1.25;;;;;;;;4911111;28;46114;-66
2022/11/16 13:23:40;;;;;;;;;4.00;1.00;;;;;;;;4913546;28;45589;-66
2022/11/16 13:26:09;;;;;;;;;4.33;2.00;;;;;;;;4909264;28;45596;-68
2022/11/16 13:28:43;;;;;;;;;4.00;2.67;;;;;;;;4913565;28;45848;-68
2022/11/16 13:31:15;;;;;;;;;4.50;2.00;;;;;;;;4913274;28;46275;-67
2022/11/16 13:33:47;;;;;;;;;3.33;3.00;;;;;;;;4913498;28;45614;-68
2022/11/16 13:36:30;;;;;;;;;2.67;1.33;;;;;;;;4911717;28;45638;-66
2022/11/16 13:38:56;;;;;;;;;4.00;1.50;;;;;;;;4915563;28;45720;-65
2022/11/16 13:41:25;;;;;;;;;2.00;2.00;;;;;;;;4915048;28;45850;-67
2022/11/16 13:43:50;;;;;;;;;1.33;1.00;;;;;;;;4908996;28;45772;-66
2022/11/16 13:46:16;;;;;;;;;2.50;1.75;;;;;;;;4898985;28;45712;-67
2022/11/16 13:48:43;;;;;;;;;2.00;2.00;;;;;;;;4912395;28;47032;-66
2022/11/16 13:51:17;;;;;;;;;2.75;1.00;;;;;;;;4914928;28;45347;-66
2022/11/16 13:53:48;;;;;;;;;3.25;2.00;;;;;;;;4897106;28;46089;-67
2022/11/16 13:56:15;;;;;;;;;3.00;1.00;;;;;;;;4912259;28;45357;-68
2022/11/16 13:58:44;;;;;;;;;5.00;3.00;;;;;;;;4913671;28;45391;-66
2022/11/16 14:01:13;;;;;;;;;2.25;0.50;;;;;;;;4902122;28;46310;-66
2022/11/16 14:03:40;;;;;;;;;2.50;2.00;;;;;;;;4913326;28;45669;-67
2022/11/16 14:06:25;;;;;;;;;2.75;1.50;;;;;;;;4912787;28;45913;-67
2022/11/16 14:08:54;;;;;;;;;2.00;1.00;;;;;;;;4912617;28;45939;-67
2022/11/16 14:11:25;;;;;;;;;2.75;1.00;;;;;;;;4913084;28;46378;-69
2022/11/16 14:13:50;;;;;;;;;2.25;1.75;;;;;;;;4914018;28;46083;-67
2022/11/16 14:16:19;;;;;;;;;5.00;1.33;;;;;;;;4913552;28;45920;-66
2022/11/16 14:18:44;;;;;;;;;1.67;1.67;;;;;;;;4912618;28;45453;-67
2022/11/16 14:21:09;;;;;;;;;1.67;0.67;;;;;;;;4913494;28;45655;-67
2022/11/16 14:23:48;;;;;;;;;4.00;1.00;;;;;;;;4912507;28;45353;-66
2022/11/16 14:26:26;;;;;;;;;2.25;2.00;;;;;;;;4910366;28;45528;-66
2022/11/16 14:29:10;;;;;;;;;5.33;2.33;;;;;;;;4910659;28;45886;-66
2022/11/16 14:31:58;;;;;;;;;4.33;1.67;;;;;;;;4910975;28;45826;-66
2022/11/16 14:34:28;;;;;;;;;4.67;2.33;;;;;;;;4911829;28;45637;-67
2022/11/16 14:36:54;;;;;;;;;3.33;2.00;;;;;;;;4913168;28;45480;-67
2022/11/16 14:39:28;;;;;;;;;3.33;2.00;;;;;;;;4912838;28;45409;-67
2022/11/16 14:41:55;;;;;;;;;1.75;1.75;;;;;;;;4910219;28;46253;-67
2022/11/16 14:44:23;;;;;;;;;5.00;2.00;;;;;;;;4912569;28;45604;-66
2022/11/16 14:46:49;;;;;;;;;2.33;2.33;;;;;;;;4913350;28;45850;-66
2022/11/16 14:49:15;;;;;;;;;4.33;3.00;;;;;;;;4910420;28;45486;-67
2022/11/16 14:51:46;;;;;;;;;2.67;2.00;;;;;;;;4914847;28;46256;-66
2022/11/16 14:54:24;;;;;;;;;4.00;3.00;;;;;;;;4912453;28;45557;-66
2022/11/16 14:56:57;;;;;;;;;4.00;2.00;;;;;;;;4896747;28;45347;-67
2022/11/16 14:59:22;;;;;;;;;4.33;3.00;;;;;;;;4911184;28;45752;-67
2022/11/16 15:01:47;;;;;;;;;3.67;2.33;;;;;;;;4911727;28;45996;-66
2022/11/16 15:04:15;;;;;;;;;5.33;4.00;;;;;;;;4895111;28;45672;-68
2022/11/16 15:06:48;;;;;;;;;3.00;1.00;;;;;;;;4899838;28;45490;-67
2022/11/16 15:09:23;;;;;;;;;3.00;3.00;;;;;;;;4895561;28;46214;-66
2022/11/16 15:14:35;;;;;;;;;3.00;2.00;;;;;;;;5002505;23;45490;-67
2022/11/16 15:17:00;;;;;;;;;5.00;2.33;;;;;;;;4918547;28;45784;-65
2022/11/16 15:19:29;;;;;;;;;3.00;3.00;;;;;;;;4917115;28;45789;-65
2022/11/16 15:21:56;;;;;;;;;1.33;1.00;;;;;;;;4903264;28;45916;-67
2022/11/16 15:24:28;;;;;;;;;4.33;3.00;;;;;;;;4916807;28;45854;-66
2022/11/16 15:26:56;;;;;;;;;3.00;2.67;;;;;;;;4922652;28;45744;-66
2022/11/16 15:29:23;;;;;;;;;1.00;1.00;;;;;;;;4901018;28;45996;-67
2022/11/16 15:31:49;;;;;;;;;5.33;2.67;;;;;;;;4916605;28;46568;-66
2022/11/16 15:34:15;;;;;;;;;3.67;3.33;;;;;;;;4919982;28;45706;-64
2022/11/16 15:36:41;;;;;;;;;3.67;3.67;;;;;;;;4905561;28;45762;-66
2022/11/16 15:39:27;;;;;;;;;4.33;2.67;;;;;;;;4927365;28;45810;-67
2022/11/16 15:41:53;;;;;;;;;4.00;3.33;;;;;;;;4930527;28;45750;-67
2022/11/16 15:44:19;;;;;;;;;5.33;2.33;;;;;;;;4931943;28;45488;-69
2022/11/16 15:46:47;;;;;;;;;5.67;3.67;;;;;;;;4919610;28;45305;-67
2022/11/16 15:49:33;;;;;;;;;5.67;3.00;;;;;;;;4918649;28;45587;-68
2022/11/16 15:51:58;;;;;;;;;8.33;5.33;;;;;;;;4909539;28;46421;-68
2022/11/16 15:54:26;;;;;;;;;2.67;2.00;;;;;;;;4926385;28;45747;-69
2022/11/16 15:56:53;;;;;;;;;5.00;3.67;;;;;;;;4934217;28;45737;-71
2022/11/16 15:59:30;;;;;;;;;5.00;3.33;;;;;;;;4922413;28;45391;-69
2022/11/16 16:01:56;;;;;;;;;6.67;3.00;;;;;;;;4923543;28;46278;-67
2022/11/16 16:04:21;;;;;;;;;4.33;2.67;;;;;;;;4934962;28;45734;-73
2022/11/16 16:06:54;;;;;;;;;7.00;5.00;;;;;;;;4930844;28;45355;-70
2022/11/16 16:09:34;;;;;;;;;6.00;4.33;;;;;;;;4919338;28;46404;-71
2022/11/16 16:12:19;;;;;;;;;6.67;4.67;;;;;;;;5053789;23;45812;-73
2022/11/16 16:14:45;;;;;;;;;5.00;4.00;;;;;;;;4922611;28;45367;-75
2022/11/16 16:17:19;;;;;;;;;3.33;2.00;;;;;;;;4926364;28;45274;-75
2022/11/16 16:19:51;;;;;;;;;7.33;5.33;;;;;;;;4917839;28;45571;-73
2022/11/16 16:22:25;;;;;;;;;4.67;2.67;;;;;;;;4906111;28;47325;-76